Friday, May 27, 2016
12:19 UTC
  |  Log In   |  Register Free
Airport Search:

Pearson Field Airport
(KVUO)

Pearson Field Airport Diagram
No Airport Diagram Available

FAA data valid effective Mar 31 2016 - May 26 2016 (unless otherwise noted).

 
 
 
 
 
 
 
 
 
 
 
 
 
 
Current Aviation Weather for KVUO

Weather Summary


The most recent METAR observation for VUO was updated at: 12:53 UTC
METAR for KVUO is not available. Closest METAR is for KPDX
KVUO  (most recent observation was updatred at 27:11 UTC)
271153Z AUTO 16003KT 10SM BKN049 OVC060 10/08 A3020 RMK AO2 RAE16 SLP227 P0001 60002 70002 T01000083 10122 20094 58002

KPDX  (3.1 nm NW)   (most recent observation was updated at 27:11 UTC)
271153Z 19005KT 10SM SCT035 OVC047 10/09 A3021 RMK AO2 RAB00E26 SLP227 P0001 60001 70001 T01000089 10128 20100 58003

KTTD  (11.5 nm NW)   (most recent observation was updated at 27:11 UTC)
271153Z AUTO 24005KT 6SM -RA BR FEW030 OVC039 10/08 A3021 RMK AO2 SLP229 P0001 60001 70001 T01000083 10139 20100 57001

TAF for KVUO is not available.
KPDX  (3.1 nm NW)   (most recent observation was updatred at 27:11 UTC)
271145Z 2712/2812 26006KT P6SM VCSH SCT025 OVC045 FM272100 32008KT P6SM VCSH BKN045 FM280600 VRB04KT P6SM BKN040 OVC090


KTTD  (11.5 nm NW)   (most recent observation was updatred at 27:11 UTC)
271145Z 2712/2812 24005KT P6SM -SHRA BKN022 OVC040 FM271800 27006KT P6SM -SHRA SCT025 BKN045 FM272100 32008KT P6SM VCSH BKN045 FM280600 VRB04KT P6SM BKN040 OVC090


KHIO  (13.3 nm NE)   (most recent observation was updatred at 27:11 UTC)
271145Z 2712/2812 VRB03KT P6SM SCT025 BKN040 FM271700 32007KT P6SM BKN050 FM280400 VRB03KT P6SM OVC035
GlobalAir.com is loading additional information.
 Current Weather at VUO
50.0 F° (10.0 C°)

Northwest winds at 5.8 mph
Pressure:
30.22 in
Humidity:
89%
Wind:
Northwest at 5.8 mph
Dew Point:
46.9 F° (8.3 C°)
Visibility:
3.00 mi
VUO NOAA Radar




Find All Airport Services Find A Hotel Find A Rental Car Find A Golf Course Find A Restaurant $100 Hamburger



Airport Weather Forecast for KVUO

Translated METAR for KVUO (1153 UTC)
METAR:
KVUO 271153Z AUTO 16003KT 10SM BKN049 OVC060 10/08 A3020 RMK AO2 RAE16 SLP227 P0001 60002 70002 T01000083 10122 20094 58002
Conditions at:
KVUO (Pearson Field, WA) observed 1153 UTC 27 May 2016
Temperature:
10°C (50°F)
Dewpoint:
8°C (46.4°F) [RH = 87.4]
Pressure:
30.2 inches Hg (1022.7 mb)
pressure at sea level is 227 in Hg
Winds:
from the SSE (160 degrees) at 3.5 mph (3 knots: 1.5 m/s)
Visibility:
10 mile(s)
Ceiling:
4,900 feet AGL
Clouds:
Broken Cloud Cover at 4,900 feet AGL
Overcast Skies at 6,000 feet AGL
Remarks:
site is un-manned
site is automated and HAS a precipitation sensor

Translated TAF for KPDX (Portland Intl, OR) (1145 UTC)
TAF text:
KPDX 271145Z 2712/2812 26006KT P6SM VCSH SCT025 OVC045
Forecast period:
Friday May 27 2016 12:00 UTC - Saturday May 28 2016 12:00 UTC
Forecast type:
FROM: standard forecast or significant change
Winds:
from the W (260 degrees) at 6.9 mph (6 knots: 3.1 m/s)
Visibility:
6 or more mile(s) (9.7+ km)
Ceiling:
4,500 feet AGL
Clouds:
Scattered Clouds at 2,500 feet AGL
Overcast Skies at 4,500 feet AGL
Weather:
Moderate In Vicinity Shower(s)
TAF text:
FM272100 32008KT P6SM VCSH BKN045
Forecast period:
Friday May 27 2016 21:00 UTC - Saturday May 28 2016 06:00 UTC
Forecast type:
FROM: standard forecast or significant change
Winds:
from the NW (320 degrees) at 9.2 mph (8 knots: 4.1 m/s)
Visibility:
6 or more mile(s) (9.7+ km)
Ceiling:
4,500 feet AGL
Clouds:
Broken Cloud Cover at 4,500 feet AGL
Weather:
Moderate In Vicinity Shower(s)
TAF text:
FM280600 VRB04KT P6SM BKN040 OVC090
Forecast period:
Saturday May 28 2016 06:00 UTC - Saturday May 28 2016 12:00 UTC
Forecast type:
FROM: standard forecast or significant change
Winds:
variable wind direction at 4.6 mph (4 knots: 2.1 m/s)
Visibility:
6 or more mile(s) (9.7+ km)
Ceiling:
4,000 feet AGL
Clouds:
Broken Cloud Cover at 4,000 feet AGL
Overcast Skies at 9,000 feet AGL
Weather:
no significant weather observed at this time
FBO's on the Field
FBO Company Facility Photos Services Transportation Aviation Fuel Prices: Prices include tax
Catering Weather Repair Courtesy Rental Type 100LL JetA JetA+ MOGAS 8087
 
Aero Maintenance Inc

This FBO has not yet been rated
FS:Epic
Last Updated: Apr-27
Login to update fuel prices
SS:
Contact Aero Maintenance IncMore FBO Information
 
Add another FBO Facility Photos Catering Weather Repair Courtesy Rental Type 100LL JetA JetA+ MOGAS 8087
Services Transportation Aviation Fuel Prices: Prices include tax


model-print
model-print
model-print
model-print